sensor_id;sensor_type;location;lat;lon;timestamp;P1;durP1;ratioP1;P2;durP2;ratioP2
24305;SDS011;12423;48.768;8.850;2023-06-10T00:00:13;9.38;;;6.90;;
24305;SDS011;12423;48.768;8.850;2023-06-10T00:02:17;8.10;;;6.25;;
24305;SDS011;12423;48.768;8.850;2023-06-10T00:10:20;8.70;;;5.90;;
24305;SDS011;12423;48.768;8.850;2023-06-10T00:12:21;8.73;;;6.50;;
24305;SDS011;12423;48.768;8.850;2023-06-10T00:14:22;8.80;;;6.32;;
24305;SDS011;12423;48.768;8.850;2023-06-10T00:16:23;9.00;;;6.25;;
24305;SDS011;12423;48.768;8.850;2023-06-10T00:18:25;7.90;;;6.72;;
24305;SDS011;12423;48.768;8.850;2023-06-10T00:20:27;8.45;;;6.03;;
24305;SDS011;12423;48.768;8.850;2023-06-10T00:22:28;14.85;;;7.10;;
24305;SDS011;12423;48.768;8.850;2023-06-10T00:24:30;8.55;;;6.30;;
24305;SDS011;12423;48.768;8.850;2023-06-10T00:26:31;7.75;;;6.43;;
24305;SDS011;12423;48.768;8.850;2023-06-10T00:28:33;9.68;;;6.07;;
24305;SDS011;12423;48.768;8.850;2023-06-10T00:30:34;8.50;;;6.30;;
24305;SDS011;12423;48.768;8.850;2023-06-10T00:32:36;7.40;;;6.50;;
24305;SDS011;12423;48.768;8.850;2023-06-10T00:34:37;7.95;;;6.40;;
24305;SDS011;12423;48.768;8.850;2023-06-10T00:36:38;10.52;;;7.00;;
24305;SDS011;12423;48.768;8.850;2023-06-10T00:38:40;9.85;;;7.00;;
24305;SDS011;12423;48.768;8.850;2023-06-10T00:40:43;9.50;;;6.32;;
24305;SDS011;12423;48.768;8.850;2023-06-10T00:42:45;7.75;;;6.93;;
24305;SDS011;12423;48.768;8.850;2023-06-10T00:44:46;8.55;;;6.53;;
24305;SDS011;12423;48.768;8.850;2023-06-10T00:46:47;8.60;;;6.18;;
24305;SDS011;12423;48.768;8.850;2023-06-10T00:48:51;7.05;;;6.03;;
24305;SDS011;12423;48.768;8.850;2023-06-10T00:50:53;7.95;;;6.20;;
24305;SDS011;12423;48.768;8.850;2023-06-10T00:52:54;10.38;;;6.35;;
24305;SDS011;12423;48.768;8.850;2023-06-10T00:54:56;8.60;;;6.15;;
24305;SDS011;12423;48.768;8.850;2023-06-10T00:56:57;7.95;;;6.55;;
24305;SDS011;12423;48.768;8.850;2023-06-10T00:59:01;8.35;;;6.57;;
24305;SDS011;12423;48.768;8.850;2023-06-10T01:01:02;9.88;;;6.15;;
24305;SDS011;12423;48.768;8.850;2023-06-10T01:03:04;9.93;;;6.88;;
24305;SDS011;12423;48.768;8.850;2023-06-10T01:05:08;10.13;;;6.20;;
24305;SDS011;12423;48.768;8.850;2023-06-10T01:07:16;7.70;;;6.18;;
24305;SDS011;12423;48.768;8.850;2023-06-10T01:09:32;8.60;;;6.57;;
24305;SDS011;12423;48.768;8.850;2023-06-10T01:11:40;9.55;;;6.88;;
24305;SDS011;12423;48.768;8.850;2023-06-10T01:13:51;9.80;;;5.93;;
24305;SDS011;12423;48.768;8.850;2023-06-10T01:15:55;8.20;;;6.43;;
24305;SDS011;12423;48.768;8.850;2023-06-10T01:18:00;7.65;;;6.53;;
24305;SDS011;12423;48.768;8.850;2023-06-10T01:20:05;12.10;;;6.85;;
24305;SDS011;12423;48.768;8.850;2023-06-10T01:22:12;8.93;;;6.40;;
24305;SDS011;12423;48.768;8.850;2023-06-10T01:24:16;8.90;;;7.03;;
24305;SDS011;12423;48.768;8.850;2023-06-10T01:26:18;10.55;;;6.32;;
24305;SDS011;12423;48.768;8.850;2023-06-10T01:30:59;8.27;;;6.40;;
24305;SDS011;12423;48.768;8.850;2023-06-10T01:33:03;11.15;;;6.95;;
24305;SDS011;12423;48.768;8.850;2023-06-10T01:35:09;8.43;;;6.40;;
24305;SDS011;12423;48.768;8.850;2023-06-10T01:37:12;8.90;;;6.85;;
24305;SDS011;12423;48.768;8.850;2023-06-10T01:39:17;8.35;;;6.18;;
24305;SDS011;12423;48.768;8.850;2023-06-10T01:41:21;10.23;;;6.75;;
24305;SDS011;12423;48.768;8.850;2023-06-10T01:43:23;10.07;;;6.90;;
24305;SDS011;12423;48.768;8.850;2023-06-10T01:45:24;8.85;;;6.60;;
24305;SDS011;12423;48.768;8.850;2023-06-10T01:47:25;9.00;;;6.60;;
24305;SDS011;12423;48.768;8.850;2023-06-10T01:49:27;9.05;;;6.90;;
24305;SDS011;12423;48.768;8.850;2023-06-10T01:51:29;8.90;;;6.90;;
24305;SDS011;12423;48.768;8.850;2023-06-10T01:53:32;9.50;;;6.97;;
24305;SDS011;12423;48.768;8.850;2023-06-10T01:55:33;7.78;;;6.55;;
24305;SDS011;12423;48.768;8.850;2023-06-10T01:57:34;10.68;;;7.53;;
24305;SDS011;12423;48.768;8.850;2023-06-10T01:59:35;8.27;;;6.60;;
24305;SDS011;12423;48.768;8.850;2023-06-10T02:01:38;9.43;;;6.97;;
24305;SDS011;12423;48.768;8.850;2023-06-10T02:03:39;8.77;;;6.38;;
24305;SDS011;12423;48.768;8.850;2023-06-10T02:05:40;8.18;;;6.80;;
24305;SDS011;12423;48.768;8.850;2023-06-10T02:07:42;10.32;;;6.63;;
24305;SDS011;12423;48.768;8.850;2023-06-10T02:09:44;8.40;;;6.97;;
24305;SDS011;12423;48.768;8.850;2023-06-10T02:11:45;7.28;;;6.18;;
24305;SDS011;12423;48.768;8.850;2023-06-10T02:13:46;8.30;;;6.05;;
24305;SDS011;12423;48.768;8.850;2023-06-10T02:15:47;8.23;;;6.85;;
24305;SDS011;12423;48.768;8.850;2023-06-10T02:17:48;8.50;;;6.68;;
24305;SDS011;12423;48.768;8.850;2023-06-10T02:19:52;9.63;;;7.35;;
24305;SDS011;12423;48.768;8.850;2023-06-10T02:21:53;7.60;;;6.38;;
24305;SDS011;12423;48.768;8.850;2023-06-10T02:23:55;8.05;;;6.32;;
24305;SDS011;12423;48.768;8.850;2023-06-10T02:25:56;10.75;;;6.07;;
24305;SDS011;12423;48.768;8.850;2023-06-10T02:27:58;9.05;;;6.88;;
24305;SDS011;12423;48.768;8.850;2023-06-10T02:29:59;7.90;;;6.55;;
24305;SDS011;12423;48.768;8.850;2023-06-10T02:32:01;10.50;;;6.65;;
24305;SDS011;12423;48.768;8.850;2023-06-10T02:34:03;7.72;;;6.40;;
24305;SDS011;12423;48.768;8.850;2023-06-10T02:36:05;8.75;;;6.22;;
24305;SDS011;12423;48.768;8.850;2023-06-10T02:38:07;8.30;;;6.80;;
24305;SDS011;12423;48.768;8.850;2023-06-10T02:40:09;7.68;;;6.45;;
24305;SDS011;12423;48.768;8.850;2023-06-10T02:42:12;7.95;;;6.78;;
24305;SDS011;12423;48.768;8.850;2023-06-10T02:44:13;7.03;;;6.20;;
24305;SDS011;12423;48.768;8.850;2023-06-10T02:46:14;8.00;;;6.30;;
24305;SDS011;12423;48.768;8.850;2023-06-10T02:48:16;8.15;;;6.40;;
24305;SDS011;12423;48.768;8.850;2023-06-10T02:50:17;8.65;;;6.72;;
24305;SDS011;12423;48.768;8.850;2023-06-10T02:52:29;8.85;;;7.25;;
24305;SDS011;12423;48.768;8.850;2023-06-10T02:54:30;8.02;;;6.07;;
24305;SDS011;12423;48.768;8.850;2023-06-10T02:56:32;8.80;;;6.88;;
24305;SDS011;12423;48.768;8.850;2023-06-10T02:58:36;8.18;;;6.93;;
24305;SDS011;12423;48.768;8.850;2023-06-10T03:00:38;10.13;;;6.97;;
24305;SDS011;12423;48.768;8.850;2023-06-10T03:02:41;7.85;;;6.80;;
24305;SDS011;12423;48.768;8.850;2023-06-10T03:04:44;7.88;;;6.35;;
24305;SDS011;12423;48.768;8.850;2023-06-10T03:06:49;12.05;;;6.68;;
24305;SDS011;12423;48.768;8.850;2023-06-10T03:08:56;8.32;;;6.63;;
24305;SDS011;12423;48.768;8.850;2023-06-10T03:10:58;9.77;;;6.93;;
24305;SDS011;12423;48.768;8.850;2023-06-10T03:12:59;8.85;;;6.55;;
24305;SDS011;12423;48.768;8.850;2023-06-10T03:15:00;9.40;;;6.88;;
24305;SDS011;12423;48.768;8.850;2023-06-10T03:17:04;8.15;;;6.68;;
24305;SDS011;12423;48.768;8.850;2023-06-10T03:19:08;9.80;;;7.03;;
24305;SDS011;12423;48.768;8.850;2023-06-10T03:21:10;9.57;;;7.50;;
24305;SDS011;12423;48.768;8.850;2023-06-10T03:23:11;9.60;;;6.72;;
24305;SDS011;12423;48.768;8.850;2023-06-10T03:25:14;9.27;;;7.28;;
24305;SDS011;12423;48.768;8.850;2023-06-10T03:27:18;8.27;;;6.50;;
24305;SDS011;12423;48.768;8.850;2023-06-10T03:29:22;8.07;;;6.65;;
24305;SDS011;12423;48.768;8.850;2023-06-10T03:31:24;10.40;;;7.13;;
24305;SDS011;12423;48.768;8.850;2023-06-10T03:33:27;8.60;;;7.10;;
24305;SDS011;12423;48.768;8.850;2023-06-10T03:35:29;9.75;;;6.75;;
24305;SDS011;12423;48.768;8.850;2023-06-10T03:37:30;9.90;;;7.45;;
24305;SDS011;12423;48.768;8.850;2023-06-10T03:39:32;10.00;;;7.20;;
24305;SDS011;12423;48.768;8.850;2023-06-10T03:41:35;9.60;;;6.75;;
24305;SDS011;12423;48.768;8.850;2023-06-10T03:43:37;9.18;;;6.70;;
24305;SDS011;12423;48.768;8.850;2023-06-10T03:45:40;8.05;;;6.93;;
24305;SDS011;12423;48.768;8.850;2023-06-10T03:47:42;8.93;;;6.80;;
24305;SDS011;12423;48.768;8.850;2023-06-10T03:49:47;10.50;;;7.75;;
24305;SDS011;12423;48.768;8.850;2023-06-10T03:51:48;9.38;;;7.18;;
24305;SDS011;12423;48.768;8.850;2023-06-10T03:53:50;12.02;;;6.43;;
24305;SDS011;12423;48.768;8.850;2023-06-10T03:55:51;8.75;;;6.35;;
24305;SDS011;12423;48.768;8.850;2023-06-10T03:57:56;8.13;;;6.68;;
24305;SDS011;12423;48.768;8.850;2023-06-10T03:59:57;9.07;;;6.97;;
24305;SDS011;12423;48.768;8.850;2023-06-10T04:01:59;7.80;;;6.72;;
24305;SDS011;12423;48.768;8.850;2023-06-10T04:04:01;9.90;;;6.97;;
24305;SDS011;12423;48.768;8.850;2023-06-10T04:06:02;9.65;;;6.88;;
24305;SDS011;12423;48.768;8.850;2023-06-10T04:08:03;7.75;;;6.75;;
24305;SDS011;12423;48.768;8.850;2023-06-10T04:10:04;8.80;;;7.13;;
24305;SDS011;12423;48.768;8.850;2023-06-10T04:12:06;8.27;;;6.70;;
24305;SDS011;12423;48.768;8.850;2023-06-10T04:14:09;9.32;;;6.97;;
24305;SDS011;12423;48.768;8.850;2023-06-10T04:16:12;9.30;;;7.03;;
24305;SDS011;12423;48.768;8.850;2023-06-10T04:18:13;8.75;;;6.47;;
24305;SDS011;12423;48.768;8.850;2023-06-10T04:20:14;8.80;;;6.57;;
24305;SDS011;12423;48.768;8.850;2023-06-10T04:22:19;9.77;;;7.20;;
24305;SDS011;12423;48.768;8.850;2023-06-10T04:24:20;7.82;;;5.97;;
24305;SDS011;12423;48.768;8.850;2023-06-10T04:26:21;8.75;;;6.80;;
24305;SDS011;12423;48.768;8.850;2023-06-10T04:28:23;8.32;;;6.43;;
24305;SDS011;12423;48.768;8.850;2023-06-10T04:30:24;9.60;;;6.55;;
24305;SDS011;12423;48.768;8.850;2023-06-10T04:32:26;8.88;;;6.63;;
24305;SDS011;12423;48.768;8.850;2023-06-10T04:34:28;9.02;;;6.47;;
24305;SDS011;12423;48.768;8.850;2023-06-10T04:36:30;8.15;;;6.60;;
24305;SDS011;12423;48.768;8.850;2023-06-10T04:38:31;21.58;;;6.93;;
24305;SDS011;12423;48.768;8.850;2023-06-10T04:40:33;15.63;;;7.30;;
24305;SDS011;12423;48.768;8.850;2023-06-10T04:42:36;18.95;;;7.32;;
24305;SDS011;12423;48.768;8.850;2023-06-10T04:44:37;9.55;;;6.72;;
24305;SDS011;12423;48.768;8.850;2023-06-10T04:46:39;9.13;;;6.65;;
24305;SDS011;12423;48.768;8.850;2023-06-10T04:48:40;10.60;;;7.05;;
24305;SDS011;12423;48.768;8.850;2023-06-10T04:50:43;9.13;;;6.38;;
24305;SDS011;12423;48.768;8.850;2023-06-10T04:52:45;10.75;;;6.68;;
24305;SDS011;12423;48.768;8.850;2023-06-10T04:54:47;9.18;;;6.80;;
24305;SDS011;12423;48.768;8.850;2023-06-10T04:56:49;10.07;;;7.40;;
24305;SDS011;12423;48.768;8.850;2023-06-10T04:58:50;9.80;;;6.78;;
24305;SDS011;12423;48.768;8.850;2023-06-10T05:00:51;8.05;;;6.35;;
24305;SDS011;12423;48.768;8.850;2023-06-10T05:02:52;10.20;;;6.63;;
24305;SDS011;12423;48.768;8.850;2023-06-10T05:04:53;9.27;;;6.95;;
24305;SDS011;12423;48.768;8.850;2023-06-10T05:06:55;9.32;;;7.18;;
24305;SDS011;12423;48.768;8.850;2023-06-10T05:08:56;9.00;;;6.47;;
24305;SDS011;12423;48.768;8.850;2023-06-10T05:10:57;9.88;;;6.97;;
24305;SDS011;12423;48.768;8.850;2023-06-10T05:12:58;9.90;;;7.32;;
24305;SDS011;12423;48.768;8.850;2023-06-10T05:15:00;8.77;;;6.85;;
24305;SDS011;12423;48.768;8.850;2023-06-10T05:17:01;8.05;;;6.60;;
24305;SDS011;12423;48.768;8.850;2023-06-10T05:19:02;10.27;;;7.05;;
24305;SDS011;12423;48.768;8.850;2023-06-10T05:21:04;8.57;;;6.97;;
24305;SDS011;12423;48.768;8.850;2023-06-10T05:23:05;10.00;;;7.80;;
24305;SDS011;12423;48.768;8.850;2023-06-10T05:25:07;11.52;;;8.05;;
24305;SDS011;12423;48.768;8.850;2023-06-10T05:27:08;10.25;;;6.85;;
24305;SDS011;12423;48.768;8.850;2023-06-10T05:29:09;8.73;;;7.55;;
24305;SDS011;12423;48.768;8.850;2023-06-10T05:31:11;9.43;;;7.50;;
24305;SDS011;12423;48.768;8.850;2023-06-10T05:33:12;10.30;;;7.60;;
24305;SDS011;12423;48.768;8.850;2023-06-10T05:35:13;9.30;;;6.85;;
24305;SDS011;12423;48.768;8.850;2023-06-10T05:37:14;8.68;;;6.53;;
24305;SDS011;12423;48.768;8.850;2023-06-10T05:39:15;8.45;;;7.20;;
24305;SDS011;12423;48.768;8.850;2023-06-10T05:41:16;10.95;;;7.18;;
24305;SDS011;12423;48.768;8.850;2023-06-10T05:43:17;9.90;;;6.88;;
24305;SDS011;12423;48.768;8.850;2023-06-10T05:45:18;9.35;;;7.20;;
24305;SDS011;12423;48.768;8.850;2023-06-10T05:47:19;11.13;;;7.35;;
24305;SDS011;12423;48.768;8.850;2023-06-10T05:49:20;8.32;;;6.68;;
24305;SDS011;12423;48.768;8.850;2023-06-10T05:51:21;8.95;;;6.57;;
24305;SDS011;12423;48.768;8.850;2023-06-10T05:53:22;9.80;;;6.88;;
24305;SDS011;12423;48.768;8.850;2023-06-10T05:55:23;6.88;;;6.07;;
24305;SDS011;12423;48.768;8.850;2023-06-10T05:57:25;8.32;;;5.78;;
24305;SDS011;12423;48.768;8.850;2023-06-10T05:59:26;7.93;;;5.60;;
24305;SDS011;12423;48.768;8.850;2023-06-10T06:01:27;8.82;;;6.22;;
24305;SDS011;12423;48.768;8.850;2023-06-10T06:03:28;6.65;;;5.35;;
24305;SDS011;12423;48.768;8.850;2023-06-10T06:05:29;7.85;;;5.65;;
24305;SDS011;12423;48.768;8.850;2023-06-10T06:07:35;6.10;;;4.85;;
24305;SDS011;12423;48.768;8.850;2023-06-10T06:09:36;6.57;;;5.53;;
24305;SDS011;12423;48.768;8.850;2023-06-10T06:11:37;7.00;;;5.57;;
24305;SDS011;12423;48.768;8.850;2023-06-10T06:13:38;7.55;;;5.75;;
24305;SDS011;12423;48.768;8.850;2023-06-10T06:15:39;6.25;;;5.45;;
24305;SDS011;12423;48.768;8.850;2023-06-10T06:17:40;6.60;;;5.07;;
24305;SDS011;12423;48.768;8.850;2023-06-10T06:19:41;8.90;;;5.68;;
24305;SDS011;12423;48.768;8.850;2023-06-10T06:21:42;10.27;;;5.43;;
24305;SDS011;12423;48.768;8.850;2023-06-10T06:23:43;6.40;;;4.88;;
24305;SDS011;12423;48.768;8.850;2023-06-10T06:25:44;8.50;;;5.80;;
24305;SDS011;12423;48.768;8.850;2023-06-10T06:27:45;6.40;;;5.28;;
24305;SDS011;12423;48.768;8.850;2023-06-10T06:29:46;6.80;;;5.10;;
24305;SDS011;12423;48.768;8.850;2023-06-10T06:31:47;7.20;;;4.93;;
24305;SDS011;12423;48.768;8.850;2023-06-10T06:33:49;8.55;;;5.70;;
24305;SDS011;12423;48.768;8.850;2023-06-10T06:35:50;6.65;;;5.80;;
24305;SDS011;12423;48.768;8.850;2023-06-10T06:37:51;6.40;;;5.22;;
24305;SDS011;12423;48.768;8.850;2023-06-10T06:39:57;6.45;;;4.97;;
24305;SDS011;12423;48.768;8.850;2023-06-10T06:41:59;7.93;;;5.38;;
24305;SDS011;12423;48.768;8.850;2023-06-10T06:44:16;8.80;;;4.95;;
24305;SDS011;12423;48.768;8.850;2023-06-10T06:46:18;7.13;;;5.43;;
24305;SDS011;12423;48.768;8.850;2023-06-10T06:48:19;5.40;;;4.70;;
24305;SDS011;12423;48.768;8.850;2023-06-10T06:50:21;5.85;;;4.65;;
24305;SDS011;12423;48.768;8.850;2023-06-10T06:52:22;5.68;;;4.80;;
24305;SDS011;12423;48.768;8.850;2023-06-10T06:54:23;8.05;;;5.00;;
24305;SDS011;12423;48.768;8.850;2023-06-10T06:56:24;7.13;;;5.50;;
24305;SDS011;12423;48.768;8.850;2023-06-10T06:58:27;6.25;;;5.05;;
24305;SDS011;12423;48.768;8.850;2023-06-10T07:00:28;7.38;;;4.70;;
24305;SDS011;12423;48.768;8.850;2023-06-10T07:02:29;6.28;;;5.05;;
24305;SDS011;12423;48.768;8.850;2023-06-10T07:04:30;6.93;;;4.72;;
24305;SDS011;12423;48.768;8.850;2023-06-10T07:06:31;7.15;;;5.28;;
24305;SDS011;12423;48.768;8.850;2023-06-10T07:08:32;8.27;;;5.35;;
24305;SDS011;12423;48.768;8.850;2023-06-10T07:10:33;6.40;;;4.93;;
24305;SDS011;12423;48.768;8.850;2023-06-10T07:12:34;7.30;;;5.30;;
24305;SDS011;12423;48.768;8.850;2023-06-10T07:14:35;7.30;;;5.10;;
24305;SDS011;12423;48.768;8.850;2023-06-10T07:16:39;5.82;;;4.38;;
24305;SDS011;12423;48.768;8.850;2023-06-10T07:18:42;6.72;;;4.35;;
24305;SDS011;12423;48.768;8.850;2023-06-10T07:20:43;6.60;;;5.20;;
24305;SDS011;12423;48.768;8.850;2023-06-10T07:22:44;6.38;;;4.55;;
24305;SDS011;12423;48.768;8.850;2023-06-10T07:24:45;7.05;;;4.85;;
24305;SDS011;12423;48.768;8.850;2023-06-10T07:26:46;6.70;;;4.47;;
24305;SDS011;12423;48.768;8.850;2023-06-10T07:28:47;6.68;;;4.55;;
24305;SDS011;12423;48.768;8.850;2023-06-10T07:30:48;5.80;;;4.68;;
24305;SDS011;12423;48.768;8.850;2023-06-10T07:32:49;7.18;;;4.72;;
24305;SDS011;12423;48.768;8.850;2023-06-10T07:34:51;7.90;;;4.45;;
24305;SDS011;12423;48.768;8.850;2023-06-10T07:36:53;5.82;;;4.18;;
24305;SDS011;12423;48.768;8.850;2023-06-10T07:38:54;5.78;;;3.75;;
24305;SDS011;12423;48.768;8.850;2023-06-10T07:40:55;5.30;;;3.90;;
24305;SDS011;12423;48.768;8.850;2023-06-10T07:42:57;5.45;;;4.25;;
24305;SDS011;12423;48.768;8.850;2023-06-10T07:44:58;4.60;;;3.72;;
24305;SDS011;12423;48.768;8.850;2023-06-10T07:46:59;5.63;;;4.00;;
24305;SDS011;12423;48.768;8.850;2023-06-10T07:49:00;6.32;;;4.07;;
24305;SDS011;12423;48.768;8.850;2023-06-10T07:51:01;5.55;;;3.97;;
24305;SDS011;12423;48.768;8.850;2023-06-10T07:53:02;5.65;;;4.43;;
24305;SDS011;12423;48.768;8.850;2023-06-10T07:55:04;5.13;;;3.75;;
24305;SDS011;12423;48.768;8.850;2023-06-10T07:57:05;5.32;;;3.90;;
24305;SDS011;12423;48.768;8.850;2023-06-10T07:59:07;4.93;;;3.60;;
24305;SDS011;12423;48.768;8.850;2023-06-10T08:01:08;5.05;;;3.80;;
24305;SDS011;12423;48.768;8.850;2023-06-10T08:03:09;4.97;;;3.40;;
24305;SDS011;12423;48.768;8.850;2023-06-10T08:05:10;5.35;;;3.80;;
24305;SDS011;12423;48.768;8.850;2023-06-10T08:07:11;5.35;;;3.72;;
24305;SDS011;12423;48.768;8.850;2023-06-10T08:09:12;5.32;;;3.97;;
24305;SDS011;12423;48.768;8.850;2023-06-10T08:11:13;5.18;;;3.72;;
24305;SDS011;12423;48.768;8.850;2023-06-10T08:13:14;6.22;;;3.83;;
24305;SDS011;12423;48.768;8.850;2023-06-10T08:15:16;6.05;;;4.00;;
24305;SDS011;12423;48.768;8.850;2023-06-10T08:17:17;6.10;;;3.92;;
24305;SDS011;12423;48.768;8.850;2023-06-10T08:19:18;5.10;;;3.75;;
24305;SDS011;12423;48.768;8.850;2023-06-10T08:21:19;5.80;;;4.20;;
24305;SDS011;12423;48.768;8.850;2023-06-10T08:23:20;6.45;;;4.35;;
24305;SDS011;12423;48.768;8.850;2023-06-10T08:25:21;5.03;;;3.78;;
24305;SDS011;12423;48.768;8.850;2023-06-10T08:27:22;5.60;;;4.03;;
24305;SDS011;12423;48.768;8.850;2023-06-10T08:29:23;6.25;;;4.30;;
24305;SDS011;12423;48.768;8.850;2023-06-10T08:31:25;5.93;;;4.57;;
24305;SDS011;12423;48.768;8.850;2023-06-10T08:33:27;5.32;;;4.38;;
24305;SDS011;12423;48.768;8.850;2023-06-10T08:35:28;6.35;;;4.60;;
24305;SDS011;12423;48.768;8.850;2023-06-10T08:37:29;6.15;;;4.80;;
24305;SDS011;12423;48.768;8.850;2023-06-10T08:39:30;6.72;;;4.53;;
24305;SDS011;12423;48.768;8.850;2023-06-10T08:41:37;6.40;;;5.10;;
24305;SDS011;12423;48.768;8.850;2023-06-10T08:43:54;5.72;;;4.70;;
24305;SDS011;12423;48.768;8.850;2023-06-10T08:46:04;7.30;;;4.95;;
24305;SDS011;12423;48.768;8.850;2023-06-10T08:48:05;6.78;;;5.03;;
24305;SDS011;12423;48.768;8.850;2023-06-10T08:50:11;7.60;;;4.60;;
24305;SDS011;12423;48.768;8.850;2023-06-10T08:52:16;5.75;;;4.28;;
24305;SDS011;12423;48.768;8.850;2023-06-10T08:54:20;7.53;;;4.68;;
24305;SDS011;12423;48.768;8.850;2023-06-10T08:56:22;6.45;;;4.50;;
24305;SDS011;12423;48.768;8.850;2023-06-10T08:58:26;5.22;;;4.47;;
24305;SDS011;12423;48.768;8.850;2023-06-10T09:00:28;7.78;;;4.80;;
24305;SDS011;12423;48.768;8.850;2023-06-10T09:02:31;5.53;;;4.30;;
24305;SDS011;12423;48.768;8.850;2023-06-10T09:04:36;8.35;;;4.72;;
24305;SDS011;12423;48.768;8.850;2023-06-10T09:06:37;7.43;;;4.80;;
24305;SDS011;12423;48.768;8.850;2023-06-10T09:08:40;7.35;;;4.40;;
24305;SDS011;12423;48.768;8.850;2023-06-10T09:10:42;8.27;;;4.32;;
24305;SDS011;12423;48.768;8.850;2023-06-10T09:12:43;5.57;;;4.15;;
24305;SDS011;12423;48.768;8.850;2023-06-10T09:14:44;8.23;;;4.25;;
24305;SDS011;12423;48.768;8.850;2023-06-10T09:16:45;5.20;;;4.18;;
24305;SDS011;12423;48.768;8.850;2023-06-10T09:18:47;7.72;;;3.90;;
24305;SDS011;12423;48.768;8.850;2023-06-10T09:20:49;5.60;;;4.40;;
24305;SDS011;12423;48.768;8.850;2023-06-10T09:22:50;4.88;;;3.80;;
24305;SDS011;12423;48.768;8.850;2023-06-10T09:24:52;3.85;;;3.00;;
24305;SDS011;12423;48.768;8.850;2023-06-10T09:27:08;4.00;;;3.38;;
24305;SDS011;12423;48.768;8.850;2023-06-10T09:29:09;4.70;;;3.53;;
24305;SDS011;12423;48.768;8.850;2023-06-10T09:31:12;6.68;;;3.90;;
24305;SDS011;12423;48.768;8.850;2023-06-10T09:33:14;4.15;;;3.60;;
24305;SDS011;12423;48.768;8.850;2023-06-10T09:35:16;7.82;;;4.30;;
24305;SDS011;12423;48.768;8.850;2023-06-10T09:37:20;7.75;;;3.72;;
24305;SDS011;12423;48.768;8.850;2023-06-10T09:39:22;5.90;;;3.40;;
24305;SDS011;12423;48.768;8.850;2023-06-10T09:41:31;4.13;;;3.47;;
24305;SDS011;12423;48.768;8.850;2023-06-10T09:43:42;9.93;;;3.67;;
24305;SDS011;12423;48.768;8.850;2023-06-10T09:45:50;4.70;;;3.65;;
24305;SDS011;12423;48.768;8.850;2023-06-10T09:47:54;5.60;;;3.75;;
24305;SDS011;12423;48.768;8.850;2023-06-10T09:49:56;7.72;;;4.22;;
24305;SDS011;12423;48.768;8.850;2023-06-10T09:51:57;5.32;;;3.97;;
24305;SDS011;12423;48.768;8.850;2023-06-10T09:53:58;4.95;;;3.78;;
24305;SDS011;12423;48.768;8.850;2023-06-10T09:56:02;4.75;;;4.00;;
24305;SDS011;12423;48.768;8.850;2023-06-10T09:58:03;5.78;;;4.40;;
24305;SDS011;12423;48.768;8.850;2023-06-10T10:00:05;7.65;;;4.18;;
24305;SDS011;12423;48.768;8.850;2023-06-10T10:02:15;5.53;;;3.95;;
24305;SDS011;12423;48.768;8.850;2023-06-10T10:04:22;4.68;;;3.50;;
24305;SDS011;12423;48.768;8.850;2023-06-10T10:06:24;5.70;;;3.85;;
24305;SDS011;12423;48.768;8.850;2023-06-10T10:08:26;5.22;;;3.80;;
24305;SDS011;12423;48.768;8.850;2023-06-10T10:10:27;5.85;;;3.75;;
24305;SDS011;12423;48.768;8.850;2023-06-10T10:12:28;5.90;;;3.75;;
24305;SDS011;12423;48.768;8.850;2023-06-10T10:14:30;5.68;;;3.90;;
24305;SDS011;12423;48.768;8.850;2023-06-10T10:16:35;6.47;;;3.90;;
24305;SDS011;12423;48.768;8.850;2023-06-10T10:18:45;5.38;;;4.00;;
24305;SDS011;12423;48.768;8.850;2023-06-10T10:20:51;6.43;;;3.88;;
24305;SDS011;12423;48.768;8.850;2023-06-10T10:22:56;5.03;;;3.58;;
24305;SDS011;12423;48.768;8.850;2023-06-10T10:24:59;4.35;;;3.80;;
24305;SDS011;12423;48.768;8.850;2023-06-10T10:27:05;5.75;;;5.05;;
24305;SDS011;12423;48.768;8.850;2023-06-10T10:29:45;5.57;;;4.47;;
24305;SDS011;12423;48.768;8.850;2023-06-10T10:31:39;5.73;;;3.47;;
24305;SDS011;12423;48.768;8.850;2023-06-10T10:33:58;4.90;;;3.80;;
24305;SDS011;12423;48.768;8.850;2023-06-10T10:36:00;5.20;;;3.30;;
24305;SDS011;12423;48.768;8.850;2023-06-10T10:38:01;5.38;;;3.95;;
24305;SDS011;12423;48.768;8.850;2023-06-10T10:40:03;6.45;;;4.22;;
24305;SDS011;12423;48.768;8.850;2023-06-10T10:42:05;6.45;;;4.00;;
24305;SDS011;12423;48.768;8.850;2023-06-10T10:44:10;4.80;;;3.60;;
24305;SDS011;12423;48.768;8.850;2023-06-10T10:46:13;5.70;;;3.67;;
24305;SDS011;12423;48.768;8.850;2023-06-10T10:48:16;4.78;;;3.58;;
24305;SDS011;12423;48.768;8.850;2023-06-10T10:50:18;7.57;;;3.67;;
24305;SDS011;12423;48.768;8.850;2023-06-10T10:52:20;6.13;;;4.07;;
24305;SDS011;12423;48.768;8.850;2023-06-10T10:54:34;4.93;;;3.60;;
24305;SDS011;12423;48.768;8.850;2023-06-10T10:56:38;4.35;;;3.53;;
24305;SDS011;12423;48.768;8.850;2023-06-10T10:58:39;4.43;;;3.45;;
24305;SDS011;12423;48.768;8.850;2023-06-10T11:00:44;4.88;;;3.55;;
24305;SDS011;12423;48.768;8.850;2023-06-10T11:02:45;5.75;;;3.88;;
24305;SDS011;12423;48.768;8.850;2023-06-10T11:04:47;4.72;;;3.83;;
24305;SDS011;12423;48.768;8.850;2023-06-10T11:06:52;6.20;;;3.95;;
24305;SDS011;12423;48.768;8.850;2023-06-10T11:08:54;6.20;;;4.10;;
24305;SDS011;12423;48.768;8.850;2023-06-10T11:10:55;5.20;;;3.85;;
24305;SDS011;12423;48.768;8.850;2023-06-10T11:12:56;3.88;;;3.47;;
24305;SDS011;12423;48.768;8.850;2023-06-10T11:14:58;6.28;;;3.95;;
24305;SDS011;12423;48.768;8.850;2023-06-10T11:16:59;4.47;;;3.63;;
24305;SDS011;12423;48.768;8.850;2023-06-10T11:19:00;4.80;;;3.50;;
24305;SDS011;12423;48.768;8.850;2023-06-10T11:21:02;3.95;;;3.42;;
24305;SDS011;12423;48.768;8.850;2023-06-10T11:23:05;5.55;;;3.38;;
24305;SDS011;12423;48.768;8.850;2023-06-10T11:25:13;5.22;;;3.40;;
24305;SDS011;12423;48.768;8.850;2023-06-10T11:27:19;5.75;;;3.38;;
24305;SDS011;12423;48.768;8.850;2023-06-10T11:29:24;5.95;;;3.78;;
24305;SDS011;12423;48.768;8.850;2023-06-10T11:31:26;3.88;;;3.40;;
24305;SDS011;12423;48.768;8.850;2023-06-10T11:33:27;5.88;;;3.38;;
24305;SDS011;12423;48.768;8.850;2023-06-10T11:35:29;5.15;;;3.50;;
24305;SDS011;12423;48.768;8.850;2023-06-10T11:37:30;5.25;;;3.58;;
24305;SDS011;12423;48.768;8.850;2023-06-10T11:39:31;3.95;;;3.17;;
24305;SDS011;12423;48.768;8.850;2023-06-10T11:41:33;4.07;;;3.05;;
24305;SDS011;12423;48.768;8.850;2023-06-10T11:43:35;4.00;;;3.08;;
24305;SDS011;12423;48.768;8.850;2023-06-10T11:45:36;4.03;;;3.17;;
24305;SDS011;12423;48.768;8.850;2023-06-10T11:47:37;4.15;;;3.20;;
24305;SDS011;12423;48.768;8.850;2023-06-10T11:49:39;6.90;;;3.97;;
24305;SDS011;12423;48.768;8.850;2023-06-10T11:51:40;4.78;;;3.47;;
24305;SDS011;12423;48.768;8.850;2023-06-10T11:53:46;3.95;;;3.17;;
24305;SDS011;12423;48.768;8.850;2023-06-10T11:55:50;6.05;;;3.10;;
24305;SDS011;12423;48.768;8.850;2023-06-10T11:57:51;4.30;;;3.42;;
24305;SDS011;12423;48.768;8.850;2023-06-10T12:00:03;5.97;;;3.20;;
24305;SDS011;12423;48.768;8.850;2023-06-10T12:02:15;4.63;;;3.22;;
24305;SDS011;12423;48.768;8.850;2023-06-10T12:04:17;5.85;;;3.10;;
24305;SDS011;12423;48.768;8.850;2023-06-10T12:06:22;3.92;;;3.17;;
24305;SDS011;12423;48.768;8.850;2023-06-10T12:08:23;4.63;;;3.00;;
24305;SDS011;12423;48.768;8.850;2023-06-10T12:10:24;4.10;;;3.00;;
24305;SDS011;12423;48.768;8.850;2023-06-10T12:12:25;5.05;;;3.40;;
24305;SDS011;12423;48.768;8.850;2023-06-10T12:16:56;4.63;;;3.10;;
24305;SDS011;12423;48.768;8.850;2023-06-10T12:19:04;4.65;;;3.15;;
24305;SDS011;12423;48.768;8.850;2023-06-10T12:21:24;5.00;;;3.60;;
24305;SDS011;12423;48.768;8.850;2023-06-10T12:23:26;4.43;;;3.50;;
24305;SDS011;12423;48.768;8.850;2023-06-10T12:25:27;4.68;;;3.10;;
24305;SDS011;12423;48.768;8.850;2023-06-10T12:27:29;4.47;;;3.33;;